createdAt,value
2018-02-19T00:00:06.170Z,0.20
2018-02-19T00:02:33.713Z,0.20
2018-02-19T00:05:01.308Z,0.20
2018-02-19T00:07:28.885Z,0.10
2018-02-19T00:09:56.450Z,0.10
2018-02-19T00:12:24.100Z,0.20
2018-02-19T00:14:51.656Z,0.10
2018-02-19T00:17:19.295Z,0.10
2018-02-19T00:19:46.816Z,0.10
2018-02-19T00:22:14.444Z,0.10
2018-02-19T00:24:42.063Z,0.10
2018-02-19T00:27:09.659Z,0.10
2018-02-19T00:29:37.204Z,0.00
2018-02-19T00:32:04.718Z,0.10
2018-02-19T00:34:32.320Z,0.10
2018-02-19T00:37:00.652Z,0.20
2018-02-19T00:39:28.233Z,0.20
2018-02-19T00:41:56.161Z,0.20
2018-02-19T00:44:24.541Z,0.30
2018-02-19T00:46:52.094Z,0.30
2018-02-19T00:49:19.658Z,0.20
2018-02-19T00:51:47.211Z,0.30
2018-02-19T00:54:14.765Z,0.20
2018-02-19T00:56:42.360Z,0.20
2018-02-19T00:59:09.888Z,0.20
2018-02-19T01:01:38.283Z,0.20
2018-02-19T01:04:06.688Z,0.20
2018-02-19T01:06:34.215Z,0.20
2018-02-19T01:09:01.737Z,0.20
2018-02-19T01:11:29.309Z,0.20
2018-02-19T01:13:56.878Z,0.10
2018-02-19T01:16:24.466Z,0.20
2018-02-19T01:18:52.007Z,0.10
2018-02-19T01:21:20.296Z,0.10
2018-02-19T01:23:48.680Z,0.20
2018-02-19T01:26:17.008Z,0.10
2018-02-19T01:28:44.574Z,0.10
2018-02-19T01:31:12.136Z,0.10
2018-02-19T01:33:39.658Z,0.10
2018-02-19T01:36:07.221Z,0.10
2018-02-19T01:38:34.738Z,0.10
2018-02-19T01:41:03.086Z,0.00
2018-02-19T01:43:30.710Z,0.00
2018-02-19T01:45:58.324Z,0.00
2018-02-19T01:48:25.851Z,0.00
2018-02-19T01:50:54.166Z,0.00
2018-02-19T01:53:21.765Z,0.00
2018-02-19T01:55:49.293Z,0.00
2018-02-19T01:58:16.857Z,-0.10
2018-02-19T02:00:44.424Z,-0.10
2018-02-19T02:03:12.723Z,-0.10
2018-02-19T02:05:41.052Z,-0.20
2018-02-19T02:08:08.584Z,-0.20
2018-02-19T02:10:36.904Z,-0.20
2018-02-19T02:13:04.432Z,-0.20
2018-02-19T02:15:32.019Z,-0.20
2018-02-19T02:17:59.624Z,-0.30
2018-02-19T02:20:27.218Z,-0.30
2018-02-19T02:22:54.786Z,-0.30
2018-02-19T02:25:22.365Z,-0.40
2018-02-19T02:27:49.959Z,-0.40
2018-02-19T02:30:18.286Z,-0.50
2018-02-19T02:32:45.836Z,-0.60
2018-02-19T02:35:14.175Z,-0.60
2018-02-19T02:37:41.722Z,-0.60
2018-02-19T02:40:09.303Z,-0.70
2018-02-19T02:42:36.862Z,-0.70
2018-02-19T02:45:04.446Z,-0.80
2018-02-19T02:47:32.021Z,-0.80
2018-02-19T02:49:59.638Z,-0.80
2018-02-19T02:52:27.177Z,-0.80
2018-02-19T02:54:54.720Z,-0.90
2018-02-19T02:57:22.281Z,-0.90
2018-02-19T02:59:49.835Z,-0.80
2018-02-19T03:02:18.153Z,-0.80
2018-02-19T03:04:45.679Z,-0.80
2018-02-19T03:07:13.223Z,-0.80
2018-02-19T03:09:40.785Z,-0.80
2018-02-19T03:12:08.397Z,-0.80
2018-02-19T03:14:35.963Z,-0.90
2018-02-19T03:17:03.528Z,-0.90
2018-02-19T03:19:31.092Z,-0.80
2018-02-19T03:21:58.698Z,-0.80
2018-02-19T03:24:26.270Z,-0.80
2018-02-19T03:26:53.801Z,-0.80
2018-02-19T03:29:21.536Z,-0.80
2018-02-19T03:31:49.879Z,-0.80
2018-02-19T03:34:17.459Z,-0.80
2018-02-19T03:36:45.009Z,-0.80
2018-02-19T03:39:12.543Z,-0.70
2018-02-19T03:41:40.859Z,-0.70
2018-02-19T03:44:08.501Z,-0.70
2018-02-19T03:46:36.024Z,-0.80
2018-02-19T03:49:03.557Z,-0.80
2018-02-19T03:51:31.865Z,-0.80
2018-02-19T03:53:59.490Z,-0.80
2018-02-19T03:56:27.026Z,-0.80
2018-02-19T03:58:54.584Z,-0.80
2018-02-19T04:01:22.163Z,-0.80
2018-02-19T04:03:49.817Z,-0.70
2018-02-19T04:06:17.395Z,-0.70
2018-02-19T04:08:44.990Z,-0.70
2018-02-19T04:11:12.541Z,-0.70
2018-02-19T04:13:40.129Z,-0.70
2018-02-19T04:16:07.677Z,-0.70
2018-02-19T04:18:35.984Z,-0.70
2018-02-19T04:21:03.554Z,-0.80
2018-02-19T04:23:31.170Z,-0.70
2018-02-19T04:25:58.764Z,-0.60
2018-02-19T04:28:26.353Z,-0.60
2018-02-19T04:30:54.645Z,-0.70
2018-02-19T04:33:22.989Z,-0.60
2018-02-19T04:35:50.661Z,-0.60
2018-02-19T04:38:18.231Z,-0.60
2018-02-19T04:40:45.828Z,-0.60
2018-02-19T04:43:13.384Z,-0.70
2018-02-19T04:45:40.972Z,-0.60
2018-02-19T04:48:08.491Z,-0.50
2018-02-19T04:50:36.637Z,-0.50
2018-02-19T04:53:04.210Z,-0.60
2018-02-19T04:55:31.808Z,-0.60
2018-02-19T04:58:00.140Z,-0.60
2018-02-19T05:00:27.721Z,-0.60
2018-02-19T05:02:55.312Z,-0.60
2018-02-19T05:05:22.930Z,-0.60
2018-02-19T05:07:50.581Z,-0.60
2018-02-19T05:10:18.918Z,-0.60
2018-02-19T05:12:46.514Z,-0.60
2018-02-19T05:15:14.046Z,-0.60
2018-02-19T05:17:41.972Z,-0.60
2018-02-19T05:20:09.519Z,-0.60
2018-02-19T05:22:37.075Z,-0.50
2018-02-19T05:25:04.638Z,-0.60
2018-02-19T05:27:32.190Z,-0.60
2018-02-19T05:30:00.540Z,-0.50
2018-02-19T05:32:28.173Z,-0.50
2018-02-19T05:34:55.790Z,-0.60
2018-02-19T05:37:23.368Z,-0.60
2018-02-19T05:39:50.892Z,-0.60
2018-02-19T05:42:18.485Z,-0.60
2018-02-19T05:44:46.036Z,-0.60
2018-02-19T05:47:13.579Z,-0.60
2018-02-19T05:49:42.014Z,-0.60
2018-02-19T05:52:09.540Z,-0.60
2018-02-19T05:54:37.123Z,-0.60
2018-02-19T05:57:05.441Z,-0.60
2018-02-19T05:59:33.063Z,-0.60
2018-02-19T06:02:00.553Z,-0.60
2018-02-19T06:04:28.928Z,-0.60
2018-02-19T06:06:57.245Z,-0.60
2018-02-19T06:09:25.589Z,-0.60
2018-02-19T06:11:53.172Z,-0.60
2018-02-19T06:14:22.263Z,-0.60
2018-02-19T06:16:49.799Z,-0.60
2018-02-19T06:19:17.381Z,-0.60
2018-02-19T06:21:44.972Z,-0.60
2018-02-19T06:24:12.522Z,-0.60
2018-02-19T06:26:40.095Z,-0.70
2018-02-19T06:29:07.657Z,-0.60
2018-02-19T06:31:35.309Z,-0.60
2018-02-19T06:34:03.714Z,-0.60
2018-02-19T06:36:32.112Z,-0.60
2018-02-19T06:38:59.799Z,-0.60
2018-02-19T06:41:27.532Z,-0.60
2018-02-19T06:43:55.056Z,-0.60
2018-02-19T06:46:22.600Z,-0.60
2018-02-19T06:48:50.137Z,-0.50
2018-02-19T06:51:17.728Z,-0.50
2018-02-19T06:53:46.048Z,-0.50
2018-02-19T06:56:13.600Z,-0.50
2018-02-19T06:58:41.909Z,-0.40
2018-02-19T07:01:09.496Z,-0.40
2018-02-19T07:03:37.025Z,-0.40
2018-02-19T07:06:05.410Z,-0.30
2018-02-19T07:08:33.743Z,-0.20
2018-02-19T07:11:01.325Z,-0.30
2018-02-19T07:13:29.001Z,-0.20
2018-02-19T07:15:56.553Z,-0.20
2018-02-19T07:18:24.102Z,-0.10
2018-02-19T07:20:52.458Z,0.00
2018-02-19T07:23:19.993Z,-0.10
2018-02-19T07:25:47.511Z,0.00
2018-02-19T07:28:15.124Z,0.20
2018-02-19T07:30:42.705Z,0.10
2018-02-19T07:33:10.303Z,0.10
2018-02-19T07:35:37.839Z,0.20
2018-02-19T07:38:05.436Z,0.30
2018-02-19T07:40:33.104Z,0.30
2018-02-19T07:43:00.645Z,0.30
2018-02-19T07:45:29.069Z,0.20
2018-02-19T07:47:56.675Z,0.20
2018-02-19T07:50:24.251Z,0.20
2018-02-19T07:52:51.886Z,0.10
2018-02-19T07:55:20.189Z,0.00
2018-02-19T07:57:47.764Z,0.00
2018-02-19T08:00:15.288Z,0.00
2018-02-19T08:02:43.612Z,0.00
2018-02-19T08:05:11.180Z,0.00
2018-02-19T08:07:38.809Z,0.10
2018-02-19T08:10:06.372Z,0.20
2018-02-19T08:12:34.028Z,0.30
2018-02-19T08:15:01.568Z,0.40
2018-02-19T08:17:29.253Z,0.60
2018-02-19T08:19:56.800Z,0.80
2018-02-19T08:22:25.113Z,0.70
2018-02-19T08:24:52.669Z,0.70
2018-02-19T08:27:20.212Z,0.90
2018-02-19T08:29:47.749Z,0.70
2018-02-19T08:32:15.272Z,0.80
2018-02-19T08:34:43.602Z,0.90
2018-02-19T08:37:11.126Z,0.90
2018-02-19T08:39:39.430Z,0.90
2018-02-19T08:42:07.747Z,0.80
2018-02-19T08:44:35.299Z,0.80
2018-02-19T08:47:02.878Z,0.60
2018-02-19T08:49:30.415Z,0.50
2018-02-19T08:51:57.938Z,0.70
2018-02-19T08:54:25.517Z,1.00
2018-02-19T08:56:53.040Z,1.20
2018-02-19T08:59:20.592Z,1.20
2018-02-19T09:01:48.147Z,1.30
2018-02-19T09:04:15.922Z,1.30
2018-02-19T09:06:43.544Z,1.20
2018-02-19T09:09:11.914Z,1.40
2018-02-19T09:11:39.484Z,1.40
2018-02-19T09:14:07.828Z,0.80
2018-02-19T09:16:35.392Z,0.80
2018-02-19T09:19:03.012Z,0.70
2018-02-19T09:21:30.601Z,0.80
2018-02-19T09:23:58.191Z,0.70
2018-02-19T09:26:25.732Z,0.80
2018-02-19T09:28:53.351Z,0.80
2018-02-19T09:31:20.977Z,0.90
2018-02-19T09:33:49.275Z,0.50
2018-02-19T09:36:16.840Z,0.50
2018-02-19T09:38:44.441Z,0.60
2018-02-19T09:41:12.808Z,0.50
2018-02-19T09:43:40.346Z,0.40
2018-02-19T09:46:07.950Z,0.40
2018-02-19T09:48:35.546Z,0.40
2018-02-19T09:51:03.122Z,0.30
2018-02-19T09:53:31.480Z,0.40
2018-02-19T09:55:59.061Z,0.40
2018-02-19T09:58:26.672Z,0.70
2018-02-19T10:00:54.243Z,0.90
2018-02-19T10:03:21.823Z,0.60
2018-02-19T10:05:49.404Z,0.50
2018-02-19T10:08:17.087Z,0.50
2018-02-19T10:10:44.667Z,0.50
2018-02-19T10:13:12.207Z,0.60
2018-02-19T10:15:39.838Z,0.80
2018-02-19T10:18:07.442Z,0.90
2018-02-19T10:20:35.787Z,1.00
2018-02-19T10:23:03.441Z,1.00
2018-02-19T10:25:31.376Z,1.30
2018-02-19T10:28:00.006Z,1.80
2018-02-19T10:30:27.610Z,1.80
2018-02-19T10:32:55.161Z,1.10
2018-02-19T10:35:22.688Z,0.90
2018-02-19T10:37:50.981Z,0.80
2018-02-19T10:40:19.332Z,1.00
2018-02-19T10:42:46.887Z,0.90
2018-02-19T10:45:14.526Z,0.70
2018-02-19T10:47:42.865Z,0.70
2018-02-19T10:50:10.405Z,0.70
2018-02-19T10:52:38.008Z,0.70
2018-02-19T10:55:05.537Z,0.70
2018-02-19T10:57:33.904Z,1.00
2018-02-19T11:00:01.506Z,1.00
2018-02-19T11:02:29.064Z,1.20
2018-02-19T11:04:57.414Z,0.90
2018-02-19T11:07:24.962Z,0.90
2018-02-19T11:09:52.513Z,1.20
2018-02-19T11:12:20.149Z,1.10
2018-02-19T11:14:47.685Z,1.10
2018-02-19T11:17:15.281Z,1.10
2018-02-19T11:19:42.809Z,1.00
2018-02-19T11:22:10.417Z,0.80
2018-02-19T11:24:37.982Z,0.90
2018-02-19T11:27:05.538Z,1.40
2018-02-19T11:29:33.089Z,1.60
2018-02-19T11:32:00.709Z,1.90
2018-02-19T11:34:28.872Z,1.60
2018-02-19T11:36:56.453Z,1.60
2018-02-19T11:39:24.162Z,1.50
2018-02-19T11:41:51.738Z,1.40
2018-02-19T11:44:19.279Z,1.10
2018-02-19T11:46:46.858Z,1.30
2018-02-19T11:49:14.392Z,1.30
2018-02-19T11:51:41.948Z,1.20
2018-02-19T11:54:10.311Z,1.30
2018-02-19T11:56:37.871Z,1.30
2018-02-19T11:59:05.447Z,1.30
2018-02-19T12:01:32.975Z,1.40
2018-02-19T12:04:00.544Z,1.60
2018-02-19T12:06:28.126Z,1.50
2018-02-19T12:08:55.678Z,1.20
2018-02-19T12:11:23.991Z,0.90
2018-02-19T12:13:51.548Z,0.80
2018-02-19T12:16:19.096Z,1.10
2018-02-19T12:18:46.668Z,1.10
2018-02-19T12:21:15.012Z,1.40
2018-02-19T12:23:42.571Z,1.40
2018-02-19T12:26:10.115Z,1.70
2018-02-19T12:28:38.543Z,1.80
2018-02-19T12:31:06.159Z,1.80
2018-02-19T12:33:34.524Z,1.50
2018-02-19T12:36:02.070Z,1.40
2018-02-19T12:38:29.656Z,1.60
2018-02-19T12:40:57.274Z,1.60
2018-02-19T12:43:24.860Z,1.70
2018-02-19T12:45:53.165Z,1.20
2018-02-19T12:48:20.773Z,1.10
2018-02-19T12:50:48.320Z,1.20
2018-02-19T12:53:15.848Z,1.30
2018-02-19T12:55:43.445Z,1.30
2018-02-19T12:58:11.772Z,1.10
2018-02-19T13:00:39.352Z,1.10
2018-02-19T13:03:06.925Z,0.90
2018-02-19T13:05:34.554Z,0.90
2018-02-19T13:08:02.153Z,0.90
2018-02-19T13:10:29.721Z,1.00
2018-02-19T13:12:57.312Z,0.90
2018-02-19T13:15:24.961Z,0.70
2018-02-19T13:17:52.497Z,0.90
2018-02-19T13:20:20.129Z,0.90
2018-02-19T13:22:47.652Z,1.00
2018-02-19T13:25:15.215Z,0.90
2018-02-19T13:27:42.784Z,0.80
2018-02-19T13:30:10.364Z,0.90
2018-02-19T13:32:38.668Z,1.20
2018-02-19T13:35:06.264Z,1.20
2018-02-19T13:37:33.858Z,1.30
2018-02-19T13:40:01.418Z,1.40
2018-02-19T13:42:28.962Z,1.40
2018-02-19T13:44:56.532Z,1.40
2018-02-19T13:47:24.858Z,1.40
2018-02-19T13:49:52.489Z,1.40
2018-02-19T13:52:20.819Z,1.10
2018-02-19T13:54:48.361Z,1.10
2018-02-19T13:57:16.661Z,1.30
2018-02-19T13:59:44.194Z,1.30
2018-02-19T14:02:11.794Z,1.40
2018-02-19T14:04:39.360Z,1.30
2018-02-19T14:07:07.713Z,1.40
2018-02-19T14:09:35.298Z,1.30
2018-02-19T14:12:02.865Z,1.40
2018-02-19T14:14:30.468Z,1.30
2018-02-19T14:16:58.784Z,1.10
2018-02-19T14:19:26.320Z,1.10
2018-02-19T14:21:54.652Z,1.10
2018-02-19T14:24:22.255Z,1.10
2018-02-19T14:26:49.785Z,1.10
2018-02-19T14:29:17.344Z,0.90
2018-02-19T14:31:45.744Z,0.90
2018-02-19T14:34:13.317Z,0.90
2018-02-19T14:36:40.893Z,0.80
2018-02-19T14:39:08.541Z,0.70
2018-02-19T14:41:36.946Z,0.70
2018-02-19T14:44:05.302Z,0.60
2018-02-19T14:46:32.910Z,0.60
2018-02-19T14:49:01.346Z,0.50
2018-02-19T14:51:28.943Z,0.50
2018-02-19T14:53:56.468Z,0.50
2018-02-19T14:56:24.935Z,0.60
2018-02-19T14:58:52.434Z,0.70
2018-02-19T15:01:20.006Z,0.60
2018-02-19T15:03:47.546Z,0.50
2018-02-19T15:06:15.173Z,0.40
2018-02-19T15:08:42.706Z,0.50
2018-02-19T15:11:10.289Z,0.40
2018-02-19T15:13:37.821Z,0.30
2018-02-19T15:16:06.164Z,0.30
2018-02-19T15:18:33.708Z,0.30
2018-02-19T15:21:01.303Z,0.30
2018-02-19T15:23:28.853Z,0.40
2018-02-19T15:25:57.208Z,0.30
2018-02-19T15:28:24.772Z,0.30
2018-02-19T15:30:52.355Z,0.30
2018-02-19T15:33:19.978Z,0.20
2018-02-19T15:35:47.562Z,0.20
2018-02-19T15:38:15.201Z,0.20
2018-02-19T15:40:43.522Z,0.20
2018-02-19T15:43:11.075Z,0.20
2018-02-19T15:45:38.612Z,0.10
2018-02-19T15:48:06.932Z,0.10
2018-02-19T15:50:34.917Z,0.10
2018-02-19T15:53:02.510Z,0.20
2018-02-19T15:55:30.107Z,0.10
2018-02-19T15:57:57.641Z,0.20
2018-02-19T16:00:25.181Z,0.20
2018-02-19T16:02:53.599Z,0.10
2018-02-19T16:05:21.154Z,0.10
2018-02-19T16:07:49.444Z,-0.10
2018-02-19T16:10:17.770Z,0.00
2018-02-19T16:12:45.350Z,-0.10
2018-02-19T16:15:12.970Z,0.00
2018-02-19T16:17:40.572Z,-0.10
2018-02-19T16:20:08.135Z,-0.10
2018-02-19T16:22:35.704Z,-0.10
2018-02-19T16:25:04.085Z,-0.10
2018-02-19T16:27:32.478Z,-0.20
2018-02-19T16:30:00.856Z,-0.20
2018-02-19T16:32:28.421Z,-0.20
2018-02-19T16:34:56.048Z,-0.20
2018-02-19T16:37:23.638Z,-0.20
2018-02-19T16:39:51.193Z,-0.20
2018-02-19T16:42:18.808Z,-0.20
2018-02-19T16:44:46.372Z,-0.20
2018-02-19T16:47:13.962Z,-0.20
2018-02-19T16:49:41.516Z,-0.20
2018-02-19T16:52:09.073Z,-0.20
2018-02-19T16:54:36.613Z,-0.20
2018-02-19T16:57:04.196Z,-0.20
2018-02-19T16:59:31.747Z,-0.30
2018-02-19T17:02:00.075Z,-0.30
2018-02-19T17:04:27.615Z,-0.30
2018-02-19T17:06:55.934Z,-0.30
2018-02-19T17:09:23.489Z,-0.30
2018-02-19T17:11:51.071Z,-0.30
2018-02-19T17:14:18.669Z,-0.40
2018-02-19T17:16:46.252Z,-0.30
2018-02-19T17:19:13.915Z,-0.30
2018-02-19T17:21:41.482Z,-0.30
2018-02-19T17:24:09.089Z,-0.30
2018-02-19T17:26:36.658Z,-0.40
2018-02-19T17:29:04.255Z,-0.30
2018-02-19T17:31:32.565Z,-0.40
2018-02-19T17:34:00.112Z,-0.40
2018-02-19T17:36:28.467Z,-0.40
2018-02-19T17:38:56.062Z,-0.40
2018-02-19T17:41:23.605Z,-0.40
2018-02-19T17:43:51.178Z,-0.40
2018-02-19T17:46:18.742Z,-0.40
2018-02-19T17:48:46.332Z,-0.50
2018-02-19T17:51:13.881Z,-0.40
2018-02-19T17:53:41.434Z,-0.40
2018-02-19T17:56:09.169Z,-0.50
2018-02-19T17:58:36.842Z,-0.50
2018-02-19T18:01:04.358Z,-0.50
2018-02-19T18:03:31.972Z,-0.50
2018-02-19T18:05:59.529Z,-0.50
2018-02-19T18:08:27.104Z,-0.50
2018-02-19T18:10:54.642Z,-0.50
2018-02-19T18:13:22.190Z,-0.50
2018-02-19T18:15:50.573Z,-0.50
2018-02-19T18:18:18.896Z,-0.50
2018-02-19T18:20:46.462Z,-0.50
2018-02-19T18:23:14.151Z,-0.50
2018-02-19T18:25:41.736Z,-0.60
2018-02-19T18:28:09.334Z,-0.60
2018-02-19T18:30:36.950Z,-0.60
2018-02-19T18:33:04.524Z,-0.60
2018-02-19T18:35:32.816Z,-0.50
2018-02-19T18:38:00.418Z,-0.60
2018-02-19T18:40:27.976Z,-0.60
2018-02-19T18:42:55.594Z,-0.60
2018-02-19T18:45:23.909Z,-0.60
2018-02-19T18:47:52.232Z,-0.60
2018-02-19T18:50:19.816Z,-0.60
2018-02-19T18:52:47.407Z,-0.70
2018-02-19T18:55:14.985Z,-0.60
2018-02-19T18:57:43.362Z,-0.70
2018-02-19T19:00:10.945Z,-0.80
2018-02-19T19:02:38.543Z,-0.80
2018-02-19T19:05:06.070Z,-0.70
2018-02-19T19:07:45.508Z,-0.70
2018-02-19T19:10:24.737Z,-0.70
2018-02-19T19:12:52.328Z,-0.70
2018-02-19T19:15:20.010Z,-0.80
2018-02-19T19:17:47.448Z,-0.80
2018-02-19T19:20:15.760Z,-0.80
2018-02-19T19:22:43.288Z,-0.80
2018-02-19T19:25:10.805Z,-0.70
2018-02-19T19:27:38.323Z,-0.70
2018-02-19T19:30:05.858Z,-0.80
2018-02-19T19:32:33.424Z,-0.70
2018-02-19T19:35:00.973Z,-0.70
2018-02-19T19:37:28.569Z,-0.70
2018-02-19T19:39:56.160Z,-0.80
2018-02-19T19:42:23.729Z,-0.70
2018-02-19T19:44:51.274Z,-0.80
2018-02-19T19:47:18.803Z,-0.70
2018-02-19T19:49:47.110Z,-0.80
2018-02-19T19:52:15.467Z,-0.70
2018-02-19T19:54:43.070Z,-0.80
2018-02-19T19:57:11.517Z,-0.70
2018-02-19T19:59:39.078Z,-0.70
2018-02-19T20:02:06.677Z,-0.70
2018-02-19T20:04:34.291Z,-0.70
2018-02-19T20:07:02.632Z,-0.70
2018-02-19T20:09:30.224Z,-0.70
2018-02-19T20:11:57.759Z,-0.80
2018-02-19T20:14:25.388Z,-0.70
2018-02-19T20:16:53.725Z,-0.70
2018-02-19T20:19:21.296Z,-0.70
2018-02-19T20:21:49.048Z,-0.70
2018-02-19T20:24:16.606Z,-0.80
2018-02-19T20:26:44.929Z,-0.80
2018-02-19T20:29:12.475Z,-0.80
2018-02-19T20:31:40.075Z,-0.80
2018-02-19T20:34:07.677Z,-0.80
2018-02-19T20:36:35.249Z,-0.80
2018-02-19T20:39:02.800Z,-0.80
2018-02-19T20:41:30.365Z,-0.70
2018-02-19T20:43:57.939Z,-0.70
2018-02-19T20:46:25.513Z,-0.80
2018-02-19T20:48:53.134Z,-0.80
2018-02-19T20:51:21.529Z,-0.80
2018-02-19T20:53:49.837Z,-0.80
2018-02-19T20:56:17.374Z,-0.80
2018-02-19T20:58:44.977Z,-0.80
2018-02-19T21:01:12.521Z,-0.80
2018-02-19T21:03:40.102Z,-0.90
2018-02-19T21:06:08.535Z,-0.90
2018-02-19T21:08:36.225Z,-0.90
2018-02-19T21:11:03.883Z,-0.90
2018-02-19T21:13:32.185Z,-1.00
2018-02-19T21:15:59.694Z,-1.00
2018-02-19T21:18:27.413Z,-0.90
2018-02-19T21:20:55.026Z,-1.00
2018-02-19T21:23:22.562Z,-0.90
2018-02-19T21:25:50.108Z,-0.90
2018-02-19T21:28:18.435Z,-0.80
2018-02-19T21:30:46.030Z,-0.80
2018-02-19T21:33:13.552Z,-0.80
2018-02-19T21:35:41.842Z,-0.90
2018-02-19T21:38:10.143Z,-0.90
2018-02-19T21:40:37.690Z,-0.90
2018-02-19T21:43:06.017Z,-0.90
2018-02-19T21:45:33.634Z,-1.00
2018-02-19T21:48:01.229Z,-1.00
2018-02-19T21:50:29.560Z,-0.90
2018-02-19T21:52:57.100Z,-0.90
2018-02-19T21:55:24.714Z,-0.90
2018-02-19T21:57:52.320Z,-0.90
2018-02-19T22:00:20.712Z,-0.90
2018-02-19T22:02:49.021Z,-0.90
2018-02-19T22:05:16.660Z,-1.00
2018-02-19T22:07:44.224Z,-1.00
2018-02-19T22:10:11.829Z,-1.00
2018-02-19T22:12:40.280Z,-1.00
2018-02-19T22:15:07.907Z,-1.00
2018-02-19T22:17:36.334Z,-1.00
2018-02-19T22:20:03.985Z,-1.10
2018-02-19T22:22:31.568Z,-1.00
2018-02-19T22:24:59.161Z,-1.10
2018-02-19T22:27:26.805Z,-1.00
2018-02-19T22:29:54.339Z,-1.00
2018-02-19T22:32:21.981Z,-1.00
2018-02-19T22:34:49.548Z,-1.00
2018-02-19T22:37:17.111Z,-1.00
2018-02-19T22:39:44.657Z,-1.00
2018-02-19T22:42:12.197Z,-1.10
2018-02-19T22:44:39.785Z,-1.10
2018-02-19T22:47:08.153Z,-1.10
2018-02-19T22:49:35.708Z,-1.10
2018-02-19T22:52:03.304Z,-1.20
2018-02-19T22:54:31.681Z,-1.10
2018-02-19T22:56:59.213Z,-1.20
2018-02-19T22:59:26.763Z,-1.10
2018-02-19T23:01:55.080Z,-1.10
2018-02-19T23:04:22.611Z,-1.10
2018-02-19T23:06:50.925Z,-1.00
2018-02-19T23:09:18.449Z,-1.10
2018-02-19T23:11:46.061Z,-0.90
2018-02-19T23:14:14.418Z,-0.90
2018-02-19T23:16:42.032Z,-0.90
2018-02-19T23:19:10.349Z,-1.00
2018-02-19T23:21:37.927Z,-1.00
2018-02-19T23:24:05.453Z,-1.00
2018-02-19T23:26:33.828Z,-0.90
2018-02-19T23:29:01.363Z,-0.90
2018-02-19T23:31:28.948Z,-0.90
2018-02-19T23:33:56.499Z,-0.90
2018-02-19T23:36:24.073Z,-1.00
2018-02-19T23:38:51.598Z,-1.10
2018-02-19T23:41:19.240Z,-1.00
2018-02-19T23:43:46.829Z,-1.10
2018-02-19T23:46:14.396Z,-1.10
2018-02-19T23:48:42.904Z,-1.10
2018-02-19T23:51:11.231Z,-1.20
2018-02-19T23:53:38.824Z,-1.20
2018-02-19T23:56:06.444Z,-1.10
2018-02-19T23:58:34.783Z,-1.10
